Time;durP1;ratioP1;P1;durP2;ratioP2;P2;SDS_P1;SDS_P2;PMS_P1;PMS_P2;Temp;Humidity;BMP_temperature;BMP_pressure;BME280_temperature;BME280_humidity;BME280_pressure;Samples;Min_cycle;Max_cycle;Signal;HPM_P1;HPM_P2
2024/03/10 00:00:16;;;;;;;60.60;30.80;;;;;;;3.70;72.84;100468.64;105249;1265;99168;-77
2024/03/10 00:03:22;;;;;;;64.00;31.30;;;;;;;3.67;72.91;100469.26;105103;1264;100749;-77
2024/03/10 00:06:07;;;;;;;64.80;32.60;;;;;;;3.65;73.04;100469.50;105260;1265;98505;-77
2024/03/10 00:08:53;;;;;;;68.60;33.20;;;;;;;3.62;73.18;100470.30;105289;1264;98504;-77
2024/03/10 00:11:42;;;;;;;67.50;33.40;;;;;;;3.62;73.58;100468.87;105214;1265;102956;-77
2024/03/10 00:14:27;;;;;;;63.60;33.70;;;;;;;3.62;73.62;100467.98;105276;1260;102327;-77
2024/03/10 00:17:13;;;;;;;66.30;32.80;;;;;;;3.61;73.71;100464.02;105206;1262;99117;-77
2024/03/10 00:19:59;;;;;;;75.30;36.90;;;;;;;3.59;73.70;100459.48;105123;1262;99386;-76
2024/03/10 00:22:45;;;;;;;74.30;35.10;;;;;;;3.56;73.83;100457.61;105332;1265;97862;-77
2024/03/10 00:25:30;;;;;;;64.10;33.40;;;;;;;3.54;74.12;100456.38;105224;1260;101386;-76
2024/03/10 00:28:16;;;;;;;72.00;34.00;;;;;;;3.53;74.24;100456.36;105151;1268;99881;-76
2024/03/10 00:31:01;;;;;;;62.40;32.80;;;;;;;3.51;74.48;100459.03;105166;1266;98525;-77
2024/03/10 00:33:47;;;;;;;64.40;33.80;;;;;;;3.49;74.59;100459.60;105169;1259;97973;-77
2024/03/10 00:36:32;;;;;;;67.20;34.70;;;;;;;3.46;74.78;100462.64;105360;1260;98421;-77
2024/03/10 00:39:19;;;;;;;66.70;34.80;;;;;;;3.44;74.88;100465.84;105200;1263;102628;-78
2024/03/10 00:42:06;;;;;;;61.80;33.20;;;;;;;3.42;74.91;100470.83;105188;1261;99164;-77
2024/03/10 00:44:51;;;;;;;59.50;31.90;;;;;;;3.41;75.09;100477.66;105249;1266;99024;-77
2024/03/10 00:47:37;;;;;;;60.60;31.80;;;;;;;3.41;75.19;100479.23;105278;1259;97983;-76
2024/03/10 00:50:22;;;;;;;66.30;32.60;;;;;;;3.40;75.43;100474.21;105179;1265;97960;-78
2024/03/10 00:53:08;;;;;;;62.80;30.20;;;;;;;3.40;75.45;100473.15;105240;1260;102656;-77
2024/03/10 00:55:54;;;;;;;62.00;31.20;;;;;;;3.40;75.45;100470.35;105232;1266;100191;-77
2024/03/10 00:58:40;;;;;;;71.90;33.40;;;;;;;3.37;75.40;100472.70;105153;1261;99416;-77
2024/03/10 01:01:26;;;;;;;64.30;32.10;;;;;;;3.37;75.51;100468.71;105167;1265;97959;-77
2024/03/10 01:04:11;;;;;;;64.70;32.00;;;;;;;3.36;75.73;100462.05;105324;1266;98619;-77
2024/03/10 01:06:57;;;;;;;71.20;33.80;;;;;;;3.34;75.79;100458.02;105287;1265;102280;-77
2024/03/10 01:09:43;;;;;;;57.60;30.50;;;;;;;3.32;75.57;100463.84;105164;1263;99098;-77
2024/03/10 01:12:28;;;;;;;68.90;35.10;;;;;;;3.30;75.58;100464.75;105249;1265;97892;-76
2024/03/10 01:15:14;;;;;;;60.80;33.80;;;;;;;3.29;75.71;100466.64;105202;1276;97952;-76
2024/03/10 01:18:00;;;;;;;64.40;33.20;;;;;;;3.27;76.05;100463.23;105225;1265;98505;-76
2024/03/10 01:20:46;;;;;;;71.50;34.40;;;;;;;3.25;76.30;100463.96;105190;1265;101390;-76
2024/03/10 01:23:32;;;;;;;67.40;34.90;;;;;;;3.22;76.07;100464.08;105242;1265;99158;-76
2024/03/10 01:26:18;;;;;;;65.80;32.90;;;;;;;3.17;75.75;100465.58;105308;1260;98550;-77
2024/03/10 01:29:04;;;;;;;63.10;33.50;;;;;;;3.13;75.79;100461.05;105304;1264;97977;-76
2024/03/10 01:31:50;;;;;;;66.50;32.60;;;;;;;3.09;75.81;100459.14;105196;1265;99644;-77
2024/03/10 01:34:36;;;;;;;62.40;32.10;;;;;;;3.05;75.81;100457.55;105396;1266;102663;-78
2024/03/10 01:37:21;;;;;;;64.60;34.30;;;;;;;3.01;76.05;100449.63;105729;1264;99238;-78
2024/03/10 01:40:09;;;;;;;66.60;32.60;;;;;;;2.96;75.86;100447.60;105558;1264;98072;-77
2024/03/10 01:42:55;;;;;;;61.10;30.70;;;;;;;2.91;75.92;100448.84;105732;1260;97982;-77
2024/03/10 01:45:41;;;;;;;55.00;30.00;;;;;;;2.86;76.04;100444.73;105253;1267;98488;-77
2024/03/10 01:48:27;;;;;;;59.40;30.50;;;;;;;2.78;75.97;100434.64;105233;1265;102734;-77
2024/03/10 01:51:13;;;;;;;61.40;30.10;;;;;;;2.67;75.94;100429.56;105236;1261;99532;-77
2024/03/10 01:54:00;;;;;;;61.80;32.00;;;;;;;2.56;76.08;100430.17;105044;1265;196249;-77
2024/03/10 01:56:46;;;;;;;55.30;28.70;;;;;;;2.50;76.52;100432.88;105258;1265;97959;-78
2024/03/10 01:59:32;;;;;;;57.10;28.90;;;;;;;2.45;76.90;100433.89;105167;1265;97989;-77
2024/03/10 02:02:19;;;;;;;59.40;30.00;;;;;;;2.42;77.08;100434.91;105248;1266;102195;-77
2024/03/10 02:05:05;;;;;;;54.50;27.90;;;;;;;2.40;77.44;100433.85;105200;1265;100521;-77
2024/03/10 02:07:50;;;;;;;51.90;28.20;;;;;;;2.38;77.56;100434.71;105237;1264;98952;-77
2024/03/10 02:10:35;;;;;;;59.70;30.10;;;;;;;2.33;77.54;100432.30;105209;1264;98608;-76
2024/03/10 02:13:22;;;;;;;49.30;26.10;;;;;;;2.31;77.81;100432.88;105226;1265;97950;-76
2024/03/10 02:16:11;;;;;;;54.50;27.80;;;;;;;2.31;78.06;100436.40;105102;1260;102147;-76
2024/03/10 02:18:56;;;;;;;54.50;28.00;;;;;;;2.31;78.29;100432.82;105213;1265;99101;-77
2024/03/10 02:21:43;;;;;;;53.30;27.40;;;;;;;2.32;78.55;100433.45;105186;1266;99389;-77
2024/03/10 02:24:33;;;;;;;55.50;27.90;;;;;;;2.33;78.66;100431.59;105145;1261;97974;-76
2024/03/10 02:27:21;;;;;;;56.50;27.70;;;;;;;2.32;78.75;100430.67;105183;1266;97901;-77
2024/03/10 02:30:29;;;;;;;52.40;27.60;;;;;;;2.29;78.98;100432.17;105333;1260;101331;-77
2024/03/10 02:48:37;;;;;;;50.80;25.20;;;;;;;2.13;80.47;100425.13;105689;1266;99172;-78
2024/03/10 02:51:23;;;;;;;54.10;26.70;;;;;;;2.15;80.49;100423.45;105596;1261;99146;-77
2024/03/10 02:54:08;;;;;;;62.00;29.80;;;;;;;2.16;80.43;100423.84;105762;1261;97916;-77
2024/03/10 02:56:54;;;;;;;51.90;26.30;;;;;;;2.16;80.36;100416.59;105783;1260;97873;-77
2024/03/10 02:59:40;;;;;;;46.10;24.40;;;;;;;2.18;80.41;100416.77;105637;1261;102763;-78
2024/03/10 03:02:29;;;;;;;54.80;27.10;;;;;;;2.18;80.24;100416.06;105805;1264;99994;-78
2024/03/10 03:05:17;;;;;;;55.70;27.70;;;;;;;2.18;80.06;100416.66;105176;1261;98528;-77
2024/03/10 03:08:03;;;;;;;51.30;25.70;;;;;;;2.15;80.17;100414.25;105212;1264;97905;-77
2024/03/10 03:10:49;;;;;;;55.30;28.00;;;;;;;2.11;80.24;100418.65;105138;1266;98643;-77
2024/03/10 03:13:37;;;;;;;53.90;26.30;;;;;;;2.10;80.32;100418.42;105106;1265;102680;-76
2024/03/10 03:16:23;;;;;;;49.50;27.60;;;;;;;2.09;80.36;100417.39;105131;1266;99341;-77
2024/03/10 03:19:13;;;;;;;53.60;26.60;;;;;;;2.09;80.47;100415.52;105143;1264;98741;-76
2024/03/10 03:22:00;;;;;;;55.10;26.80;;;;;;;2.06;80.52;100411.91;105135;1261;97897;-76
2024/03/10 03:24:45;;;;;;;56.90;26.80;;;;;;;2.05;80.76;100414.45;105161;1264;97861;-77
2024/03/10 03:27:31;;;;;;;50.20;26.80;;;;;;;2.02;80.69;100412.65;105182;1260;101334;-77
2024/03/10 03:30:18;;;;;;;53.50;26.90;;;;;;;2.00;81.12;100407.73;105123;1261;100913;-76
2024/03/10 03:33:03;;;;;;;48.50;25.50;;;;;;;1.95;81.23;100407.24;105173;1261;98060;-76
2024/03/10 03:35:49;;;;;;;47.70;25.60;;;;;;;1.93;81.47;100406.39;105168;1260;97937;-76
2024/03/10 03:38:35;;;;;;;50.80;25.10;;;;;;;1.92;81.61;100406.33;105136;1273;98509;-77
2024/03/10 03:41:20;;;;;;;49.90;25.80;;;;;;;1.91;81.73;100406.25;105166;1266;101360;-77
2024/03/10 03:44:07;;;;;;;54.30;27.20;;;;;;;1.91;81.94;100408.83;105144;1261;100342;-76
2024/03/10 03:46:52;;;;;;;53.30;27.20;;;;;;;1.92;82.25;100408.38;105209;1267;98081;-77
2024/03/10 03:49:38;;;;;;;50.60;26.60;;;;;;;1.94;82.18;100404.70;105098;1261;97954;-76
2024/03/10 03:52:24;;;;;;;58.20;28.00;;;;;;;1.96;82.29;100405.70;105058;1265;97850;-76
2024/03/10 03:55:10;;;;;;;52.80;27.50;;;;;;;1.99;82.44;100405.32;105206;1260;101431;-77
2024/03/10 03:57:56;;;;;;;52.30;26.40;;;;;;;2.02;82.52;100403.29;105365;1264;99843;-76
2024/03/10 04:00:42;;;;;;;58.30;28.40;;;;;;;2.06;82.54;100405.54;105162;1266;108088;-76
2024/03/10 04:03:29;;;;;;;56.50;26.70;;;;;;;2.09;82.46;100406.48;105146;1260;97793;-76
2024/03/10 04:06:15;;;;;;;54.90;26.50;;;;;;;2.12;82.58;100403.58;105184;1264;99765;-78
2024/03/10 04:09:00;;;;;;;52.30;26.50;;;;;;;2.16;82.50;100401.48;105134;1266;101349;-76
2024/03/10 04:11:46;;;;;;;54.80;27.50;;;;;;;2.18;82.38;100401.16;105091;1261;99108;-77
2024/03/10 04:14:31;;;;;;;54.20;27.90;;;;;;;2.20;82.54;100400.59;105216;1260;99088;-77
2024/03/10 04:17:17;;;;;;;47.20;24.80;;;;;;;2.21;82.52;100397.63;105153;1261;98080;-76
2024/03/10 04:20:02;;;;;;;53.50;27.40;;;;;;;2.21;82.59;100390.61;105119;1264;98638;-76
2024/03/10 04:22:48;;;;;;;54.70;27.20;;;;;;;2.21;82.43;100392.91;105204;1264;101497;-76
2024/03/10 04:25:34;;;;;;;55.20;28.60;;;;;;;2.19;82.42;100390.76;105121;1261;99268;-76
2024/03/10 04:28:20;;;;;;;52.40;25.70;;;;;;;2.20;82.43;100396.88;105218;1260;98046;-77
2024/03/10 04:31:05;;;;;;;53.00;27.50;;;;;;;2.21;82.62;100391.84;105167;1265;98154;-77
2024/03/10 04:33:51;;;;;;;49.70;25.80;;;;;;;2.21;82.49;100391.84;105149;1264;97899;-76
2024/03/10 04:36:37;;;;;;;50.20;27.10;;;;;;;2.21;82.48;100390.64;105107;1265;103058;-76
2024/03/10 04:39:22;;;;;;;48.60;25.40;;;;;;;2.20;82.34;100391.79;105058;1261;100340;-76
2024/03/10 04:42:09;;;;;;;56.00;25.80;;;;;;;2.19;82.38;100390.65;105001;1261;99337;-77
2024/03/10 04:44:54;;;;;;;53.80;25.50;;;;;;;2.17;82.36;100389.25;104998;1264;98056;-77
2024/03/10 04:47:39;;;;;;;54.20;25.40;;;;;;;2.15;82.50;100387.66;105201;1260;97957;-77
2024/03/10 04:50:25;;;;;;;52.00;26.60;;;;;;;2.11;82.65;100386.06;105268;1264;101410;-77
2024/03/10 04:53:10;;;;;;;52.40;25.20;;;;;;;2.09;82.74;100382.61;105681;1260;99215;-78
2024/03/10 04:55:57;;;;;;;50.60;25.90;;;;;;;2.07;82.88;100380.84;105725;1260;99018;-78
2024/03/10 04:58:43;;;;;;;51.70;26.10;;;;;;;2.04;83.04;100381.10;105487;1260;97956;-76
2024/03/10 05:01:29;;;;;;;52.50;27.00;;;;;;;2.01;83.03;100379.60;105214;1260;98412;-76
2024/03/10 05:04:14;;;;;;;50.60;26.50;;;;;;;2.00;83.42;100379.70;105236;1264;101420;-78
2024/03/10 05:07:00;;;;;;;53.60;26.60;;;;;;;1.99;83.50;100379.40;105198;1260;100544;-77
2024/03/10 05:09:45;;;;;;;57.40;26.60;;;;;;;1.98;83.47;100382.02;105202;1266;98515;-76
2024/03/10 05:12:31;;;;;;;54.80;27.00;;;;;;;1.97;83.61;100382.80;105128;1260;99251;-77
2024/03/10 05:15:17;;;;;;;55.50;26.50;;;;;;;1.97;83.70;100387.69;105219;1260;98498;-77
2024/03/10 05:18:02;;;;;;;52.50;26.70;;;;;;;2.00;84.00;100389.39;105094;1264;101977;-76
2024/03/10 05:20:48;;;;;;;58.00;27.60;;;;;;;2.03;83.99;100390.55;104992;1264;99201;-77
2024/03/10 05:23:33;;;;;;;55.70;27.80;;;;;;;2.03;84.05;100393.66;105020;1264;98737;-78
2024/03/10 05:26:19;;;;;;;55.80;25.70;;;;;;;2.03;84.07;100393.20;105154;1260;98542;-76
2024/03/10 05:29:05;;;;;;;49.80;25.60;;;;;;;2.00;84.15;100391.80;105161;1261;98432;-77
2024/03/10 05:31:50;;;;;;;54.30;26.80;;;;;;;1.97;84.36;100393.13;105129;1264;102602;-77
2024/03/10 05:34:36;;;;;;;53.50;28.80;;;;;;;1.96;84.43;100397.69;105021;1260;99099;-77
2024/03/10 05:37:25;;;;;;;55.20;27.00;;;;;;;1.96;84.64;100403.80;105016;1261;98078;-76
2024/03/10 05:40:12;;;;;;;56.90;28.10;;;;;;;1.98;84.75;100399.95;105022;1264;98080;-77
2024/03/10 05:42:57;;;;;;;59.10;27.00;;;;;;;2.01;84.84;100397.19;104952;1260;98574;-76
2024/03/10 05:45:43;;;;;;;54.10;26.10;;;;;;;2.04;84.82;100395.50;105137;1260;102667;-76
2024/03/10 05:48:28;;;;;;;53.00;26.90;;;;;;;2.08;84.86;100395.34;105055;1260;99155;-77
2024/03/10 05:51:14;;;;;;;57.40;27.20;;;;;;;2.11;84.87;100396.78;105061;1264;98348;-77
2024/03/10 05:54:00;;;;;;;56.90;26.80;;;;;;;2.14;84.86;100401.48;105264;1264;98065;-77
2024/03/10 05:56:45;;;;;;;55.00;27.00;;;;;;;2.15;84.79;100404.52;105119;1264;98563;-79
2024/03/10 05:59:31;;;;;;;54.90;28.30;;;;;;;2.16;84.83;100404.13;105215;1261;102115;-77
2024/03/10 06:02:17;;;;;;;55.10;27.40;;;;;;;2.16;84.88;100406.41;105015;1264;99148;-76
2024/03/10 06:05:02;;;;;;;56.10;28.10;;;;;;;2.16;85.13;100405.02;105007;1260;98105;-77
2024/03/10 06:07:48;;;;;;;57.50;26.90;;;;;;;2.16;85.19;100404.14;105038;1261;97970;-77
2024/03/10 06:10:33;;;;;;;59.00;27.20;;;;;;;2.18;85.35;100403.59;105008;1264;98482;-77
2024/03/10 06:13:20;;;;;;;50.00;25.10;;;;;;;2.19;85.46;100402.23;105043;1261;103017;-77
2024/03/10 06:16:07;;;;;;;50.70;26.40;;;;;;;2.20;85.48;100404.24;105143;1264;99153;-76
2024/03/10 06:27:51;;;;;;;48.10;25.20;;;;;;;2.33;85.72;100423.73;105062;1264;102653;-78
2024/03/10 06:30:36;;;;;;;49.10;25.40;;;;;;;2.36;85.70;100426.81;105285;1260;99506;-77
2024/03/10 06:33:22;;;;;;;57.60;26.70;;;;;;;2.40;85.80;100431.55;105585;1272;98062;-78
2024/03/10 06:36:11;;;;;;;50.50;25.10;;;;;;;2.45;85.90;100434.25;105333;1260;97970;-77
2024/03/10 06:38:57;;;;;;;52.00;26.50;;;;;;;2.50;86.05;100429.71;105412;1273;97905;-77
2024/03/10 06:41:42;;;;;;;58.50;27.90;;;;;;;2.54;86.42;100429.32;106114;1260;101488;-77
2024/03/10 06:44:28;;;;;;;55.60;27.40;;;;;;;2.58;86.26;100424.59;105398;1261;99315;-77
2024/03/10 06:47:13;;;;;;;51.60;26.60;;;;;;;2.62;86.62;100420.98;105607;1260;108790;-76
2024/03/10 06:49:59;;;;;;;57.10;28.10;;;;;;;2.66;86.66;100415.17;105599;1261;97973;-77
2024/03/10 06:52:46;;;;;;;52.10;26.70;;;;;;;2.71;86.64;100412.64;105449;1264;99413;-78
2024/03/10 06:55:31;;;;;;;58.80;27.10;;;;;;;2.75;86.71;100415.20;105638;1260;101308;-77
2024/03/10 06:58:17;;;;;;;59.60;27.90;;;;;;;2.80;86.91;100420.45;105142;1266;99144;-77
2024/03/10 07:01:03;;;;;;;54.10;28.20;;;;;;;2.86;87.00;100418.45;105532;1261;98969;-77
2024/03/10 07:03:49;;;;;;;58.30;29.10;;;;;;;2.91;86.80;100418.09;105341;1260;98124;-76
2024/03/10 07:06:35;;;;;;;54.20;27.60;;;;;;;2.97;87.13;100419.34;105441;1260;97925;-77
2024/03/10 07:09:25;;;;;;;50.30;27.00;;;;;;;3.03;87.06;100414.30;105591;1265;102943;-80
2024/03/10 07:12:11;;;;;;;57.80;32.10;;;;;;;3.10;87.14;100407.81;105342;1265;100638;-78
2024/03/10 07:14:57;;;;;;;55.10;29.60;;;;;;;3.18;87.23;100404.79;105266;1267;99040;-77
2024/03/10 07:17:43;;;;;;;58.50;28.80;;;;;;;3.25;87.05;100402.05;105459;1260;97973;-77
2024/03/10 07:20:29;;;;;;;53.50;28.00;;;;;;;3.32;87.03;100406.09;105464;1261;97806;-77
2024/03/10 07:23:15;;;;;;;57.80;32.10;;;;;;;3.39;86.65;100407.88;105229;1260;101526;-76
2024/03/10 07:26:01;;;;;;;53.90;29.80;;;;;;;3.46;86.41;100407.09;105303;1263;99100;-85
2024/03/10 07:28:47;;;;;;;52.30;27.80;;;;;;;3.52;86.46;100403.45;106029;1260;99123;-84
2024/03/10 07:31:33;;;;;;;54.50;28.40;;;;;;;3.58;86.13;100405.02;105907;1260;99253;-84
2024/03/10 07:34:19;;;;;;;61.50;32.10;;;;;;;3.64;86.21;100407.94;105939;1260;98508;-84
2024/03/10 07:37:05;;;;;;;71.10;35.80;;;;;;;3.71;86.12;100409.02;105845;1260;102619;-76
2024/03/10 07:39:50;;;;;;;56.50;28.90;;;;;;;3.79;86.08;100410.71;105092;1264;99143;-76
2024/03/10 07:42:36;;;;;;;51.10;27.70;;;;;;;3.86;85.97;100413.34;105188;1264;99791;-76
2024/03/10 07:45:22;;;;;;;55.40;30.30;;;;;;;3.95;85.81;100415.38;105110;1261;98729;-76
2024/03/10 07:48:09;;;;;;;58.00;28.60;;;;;;;4.02;85.50;100419.14;105753;1261;97853;-88
2024/03/10 07:50:57;;;;;;;51.30;27.40;;;;;;;4.09;85.54;100418.61;106356;1264;101444;-87
2024/03/10 07:53:43;;;;;;;50.00;27.30;;;;;;;4.16;85.30;100420.16;106195;1259;100433;-85
2024/03/10 07:56:29;;;;;;;54.40;29.10;;;;;;;4.25;85.59;100421.74;106248;1266;97972;-86
2024/03/10 07:59:21;;;;;;;51.70;26.30;;;;;;;4.35;85.31;100423.59;106037;1262;97887;-85
2024/03/10 08:02:06;;;;;;;50.50;26.80;;;;;;;4.44;85.12;100421.55;106140;1260;98153;-88
2024/03/10 08:04:53;;;;;;;56.20;27.40;;;;;;;4.55;84.96;100419.46;106014;1260;103615;-78
2024/03/10 08:07:40;;;;;;;55.60;27.10;;;;;;;4.65;84.81;100410.82;105921;1264;99363;-83
2024/03/10 08:10:27;;;;;;;52.90;29.90;;;;;;;4.75;84.69;100411.20;105981;1266;99020;-82
2024/03/10 08:13:12;;;;;;;48.10;26.40;;;;;;;4.86;84.85;100410.50;106111;1265;98070;-78
2024/03/10 08:15:59;;;;;;;50.70;26.30;;;;;;;4.97;84.59;100410.21;105312;1259;98997;-82
2024/03/10 08:18:45;;;;;;;48.10;25.60;;;;;;;5.08;84.26;100403.05;106356;1264;102054;-83
2024/03/10 08:21:30;;;;;;;46.40;25.80;;;;;;;5.19;84.04;100398.77;106381;1260;99217;-80
2024/03/10 08:24:16;;;;;;;41.10;23.90;;;;;;;5.29;83.89;100397.11;106559;1260;97864;-79
2024/03/10 08:27:01;;;;;;;44.10;24.80;;;;;;;5.42;84.09;100391.33;106315;1259;97924;-78
2024/03/10 08:29:48;;;;;;;44.30;26.20;;;;;;;5.57;83.50;100390.30;106007;1260;97939;-80
2024/03/10 08:32:36;;;;;;;45.10;25.10;;;;;;;5.71;83.29;100389.86;106439;1264;101447;-79
2024/03/10 08:35:24;;;;;;;43.70;24.70;;;;;;;5.85;83.24;100380.05;106464;1260;99354;-80
2024/03/10 08:38:09;;;;;;;49.70;24.90;;;;;;;5.99;82.81;100375.72;105133;1265;98538;-79
2024/03/10 08:40:56;;;;;;;49.00;28.30;;;;;;;6.13;82.68;100376.51;105515;1260;98021;-79
2024/03/10 08:43:41;;;;;;;48.20;26.60;;;;;;;6.27;82.67;100372.61;105524;1260;98621;-78
2024/03/10 08:46:27;;;;;;;42.60;24.70;;;;;;;6.41;82.94;100372.99;105330;1264;101416;-79
2024/03/10 08:49:13;;;;;;;45.80;25.60;;;;;;;6.54;82.79;100369.41;105239;1264;99098;-77
2024/03/10 08:51:58;;;;;;;40.30;23.20;;;;;;;6.70;82.94;100368.70;105360;1259;99039;-78
2024/03/10 08:54:43;;;;;;;40.60;23.50;;;;;;;6.89;82.88;100362.88;105315;1264;97973;-78
2024/03/10 08:57:29;;;;;;;38.80;22.90;;;;;;;7.10;82.44;100363.42;105325;1260;98579;-78
2024/03/10 09:00:14;;;;;;;39.70;22.70;;;;;;;7.29;82.10;100363.16;105335;1260;102679;-77
2024/03/10 09:03:00;;;;;;;35.70;20.60;;;;;;;7.52;81.93;100359.67;105376;1261;99162;-79
2024/03/10 09:05:46;;;;;;;35.90;22.20;;;;;;;7.80;82.02;100357.35;105329;1264;99431;-77
2024/03/10 09:08:31;;;;;;;32.90;20.10;;;;;;;8.03;80.75;100354.67;107183;1261;98023;-77
2024/03/10 09:11:17;;;;;;;32.70;19.70;;;;;;;8.18;79.94;100359.11;105304;1259;98025;-78
2024/03/10 09:14:03;;;;;;;30.90;19.10;;;;;;;8.27;79.17;100358.82;105395;1264;101326;-78
2024/03/10 09:16:50;;;;;;;31.80;19.00;;;;;;;8.33;78.89;100355.05;105736;1262;99134;-79
2024/03/10 09:19:35;;;;;;;30.00;18.50;;;;;;;8.40;78.14;100351.22;105542;1264;98963;-78
2024/03/10 09:22:20;;;;;;;34.30;19.30;;;;;;;8.45;77.20;100349.91;105284;1263;98557;-78
2024/03/10 09:25:12;;;;;;;31.70;19.00;;;;;;;8.50;76.91;100347.91;105275;1259;98505;-78
2024/03/10 09:27:59;;;;;;;35.30;19.80;;;;;;;8.58;76.79;100349.34;105491;1264;102682;-79
2024/03/10 09:30:48;;;;;;;31.00;18.10;;;;;;;8.66;76.28;100346.53;105236;1264;100388;-78
2024/03/10 09:33:35;;;;;;;28.20;18.10;;;;;;;8.76;76.30;100337.20;105282;1259;98842;-78
2024/03/10 09:36:21;;;;;;;32.80;18.20;;;;;;;8.84;76.09;100333.42;105265;1260;98041;-79
2024/03/10 09:39:12;;;;;;;31.10;18.50;;;;;;;8.91;75.44;100333.98;105302;1264;98384;-78
2024/03/10 09:41:58;;;;;;;25.60;17.70;;;;;;;8.99;75.30;100334.20;105620;1260;101345;-78
2024/03/10 09:44:50;;;;;;;26.30;17.30;;;;;;;9.05;74.74;100329.36;105397;1259;99118;-85
2024/03/10 09:47:37;;;;;;;24.50;16.20;;;;;;;9.12;73.80;100331.39;105747;1264;97929;-86
2024/03/10 09:50:24;;;;;;;24.60;16.20;;;;;;;9.18;73.28;100329.20;105812;1259;97935;-86
2024/03/10 09:53:12;;;;;;;24.50;15.40;;;;;;;9.24;72.99;100325.99;106480;1260;98400;-87
2024/03/10 09:55:58;;;;;;;22.70;14.60;;;;;;;9.30;72.69;100327.40;105986;1259;102695;-82
2024/03/10 09:58:47;;;;;;;22.80;14.70;;;;;;;9.37;72.24;100326.52;105967;1262;101480;-82
2024/03/10 10:01:34;;;;;;;25.50;15.90;;;;;;;9.45;71.81;100324.80;106006;1259;99279;-84
2024/03/10 10:04:25;;;;;;;26.40;15.70;;;;;;;9.52;72.01;100319.55;105586;1267;97897;-85
2024/03/10 10:07:13;;;;;;;27.70;14.80;;;;;;;9.59;71.62;100317.81;106079;1259;98511;-85
2024/03/10 10:10:03;;;;;;;23.90;15.40;;;;;;;9.65;72.02;100310.20;105930;1259;101348;-78
2024/03/10 10:12:53;;;;;;;25.10;14.50;;;;;;;9.75;71.81;100308.71;105238;1264;100893;-77
2024/03/10 10:15:40;;;;;;;26.10;15.50;;;;;;;9.83;71.29;100309.92;105140;1261;100030;-77
2024/03/10 10:18:27;;;;;;;22.50;15.20;;;;;;;9.92;70.56;100307.35;105249;1263;97976;-77
2024/03/10 10:21:13;;;;;;;37.90;20.90;;;;;;;10.00;70.17;100304.96;105239;1263;98845;-76
2024/03/10 10:24:00;;;;;;;33.60;18.90;;;;;;;10.06;69.91;100307.42;105168;1261;101484;-77
2024/03/10 10:27:04;;;;;;;36.90;19.70;;;;;;;10.12;69.74;100305.65;105250;1264;99992;-78
2024/03/10 10:29:50;;;;;;;54.10;29.50;;;;;;;10.17;68.83;100303.56;105072;1261;98973;-76
2024/03/10 10:32:35;;;;;;;27.50;17.80;;;;;;;10.20;67.97;100296.26;105112;1260;97982;-78
2024/03/10 10:35:21;;;;;;;32.50;19.30;;;;;;;10.22;67.84;100300.11;105156;1264;98435;-77
2024/03/10 10:38:12;;;;;;;29.10;18.10;;;;;;;10.24;67.79;100302.15;105362;1262;101426;-85
2024/03/10 10:40:59;;;;;;;26.10;15.00;;;;;;;10.29;67.58;100303.38;106459;1262;100342;-90
2024/03/10 10:43:46;;;;;;;23.90;15.60;;;;;;;10.33;68.14;100303.14;106196;1259;97986;-87
2024/03/10 10:46:34;;;;;;;25.80;18.00;;;;;;;10.40;68.35;100300.68;105707;1260;98831;-76
2024/03/10 10:49:21;;;;;;;27.20;17.90;;;;;;;10.46;67.74;100293.98;105600;1261;98524;-78
2024/03/10 10:52:11;;;;;;;22.40;15.90;;;;;;;10.52;67.63;100294.45;105123;1260;102696;-77
2024/03/10 10:54:57;;;;;;;25.70;14.70;;;;;;;10.59;67.11;100285.77;105324;1275;99103;-77
2024/03/10 10:57:47;;;;;;;22.30;14.90;;;;;;;10.65;66.81;100285.48;105476;1264;97976;-77
2024/03/10 11:00:33;;;;;;;23.10;16.20;;;;;;;10.69;66.86;100281.35;105385;1264;97963;-77
2024/03/10 11:03:28;;;;;;;21.60;15.50;;;;;;;10.73;66.51;100273.31;105527;1259;98402;-78
2024/03/10 11:06:27;;;;;;;24.10;14.60;;;;;;;10.79;66.79;100269.09;105432;1263;101330;-77
2024/03/10 11:09:15;;;;;;;23.20;13.60;;;;;;;10.85;67.14;100262.20;106567;1260;99107;-77
2024/03/10 11:12:18;;;;;;;19.60;13.50;;;;;;;10.91;66.91;100270.17;105386;1262;99090;-78
2024/03/10 11:15:07;;;;;;;23.10;13.50;;;;;;;10.97;66.50;100262.48;105086;1263;97915;-77
2024/03/10 11:17:53;;;;;;;20.80;14.00;;;;;;;11.01;66.29;100258.80;105168;1264;98609;-77
2024/03/10 11:20:39;;;;;;;24.00;16.50;;;;;;;11.06;66.04;100249.80;105015;1259;101367;-77
2024/03/10 11:23:36;;;;;;;28.10;17.50;;;;;;;11.11;65.42;100251.88;105057;1260;101382;-76
2024/03/10 11:26:24;;;;;;;24.20;15.40;;;;;;;11.12;65.25;100255.16;105139;1259;98034;-77
2024/03/10 11:29:28;;;;;;;23.10;15.30;;;;;;;11.13;64.84;100257.33;105121;1264;98417;-77
2024/03/10 11:32:45;;;;;;;26.60;14.30;;;;;;;11.14;64.20;100260.23;105130;1260;99222;-77
2024/03/10 11:35:34;;;;;;;23.80;13.30;;;;;;;11.13;64.18;100253.02;104886;1259;102389;-78
2024/03/10 11:38:21;;;;;;;20.50;13.30;;;;;;;11.14;64.45;100246.04;105093;1263;99091;-77
2024/03/10 11:41:10;;;;;;;28.10;15.10;;;;;;;11.16;64.63;100236.52;105093;1264;97996;-77
2024/03/10 11:43:57;;;;;;;23.50;16.10;;;;;;;11.17;64.53;100235.67;105046;1264;97996;-79
2024/03/10 11:46:43;;;;;;;20.60;13.50;;;;;;;11.20;64.20;100234.75;105163;1264;98575;-77
2024/03/10 11:49:29;;;;;;;19.80;13.70;;;;;;;11.22;63.81;100224.96;105117;1264;102373;-78
2024/03/10 11:52:20;;;;;;;21.20;13.60;;;;;;;11.25;64.05;100224.20;105229;1261;100387;-87
2024/03/10 11:55:14;;;;;;;23.80;13.00;;;;;;;11.29;63.87;100219.39;105714;1260;98553;-76
2024/03/10 11:58:00;;;;;;;19.40;12.70;;;;;;;11.33;63.50;100221.75;105231;1262;97997;-85
2024/03/10 12:00:47;;;;;;;23.00;13.70;;;;;;;11.37;63.46;100228.70;106737;1260;98463;-89
2024/03/10 12:03:35;;;;;;;21.00;13.20;;;;;;;11.42;63.33;100231.97;106418;1259;103566;-86
2024/03/10 12:06:23;;;;;;;20.50;14.10;;;;;;;11.47;63.53;100230.17;106435;1260;99791;-88
2024/03/10 12:09:12;;;;;;;22.60;13.60;;;;;;;11.53;63.75;100232.05;106420;1259;100068;-88
2024/03/10 12:12:10;;;;;;;20.00;12.70;;;;;;;11.59;63.22;100232.90;106111;1263;97984;-82
2024/03/10 12:14:56;;;;;;;20.10;14.10;;;;;;;11.62;63.45;100232.83;105718;1260;98816;-85
2024/03/10 12:17:52;;;;;;;25.30;14.30;;;;;;;11.67;63.55;100231.59;105758;1267;102422;-84
2024/03/10 12:20:39;;;;;;;21.00;16.10;;;;;;;11.72;63.35;100231.23;106066;1261;100904;-85
2024/03/10 12:23:24;;;;;;;24.30;17.30;;;;;;;11.76;63.14;100227.14;105808;1261;97872;-84
2024/03/10 12:26:14;;;;;;;21.90;15.00;;;;;;;11.79;63.28;100225.52;105979;1261;97905;-89
2024/03/10 12:29:00;;;;;;;21.10;15.00;;;;;;;11.82;62.91;100227.63;106227;1268;98506;-89
2024/03/10 12:31:48;;;;;;;24.10;15.90;;;;;;;11.83;63.06;100226.02;105716;1259;102689;-85
2024/03/10 12:34:34;;;;;;;20.50;13.80;;;;;;;11.86;63.15;100224.33;105627;1259;101438;-84
2024/03/10 12:37:20;;;;;;;27.50;16.90;;;;;;;11.89;62.52;100219.29;105902;1260;98084;-85
2024/03/10 12:40:14;;;;;;;19.80;14.10;;;;;;;11.91;62.74;100215.21;105966;1267;97887;-85
2024/03/10 12:43:05;;;;;;;21.20;13.70;;;;;;;11.94;62.91;100214.10;105628;1264;97943;-85
2024/03/10 12:45:53;;;;;;;27.70;15.20;;;;;;;11.97;62.66;100207.83;105761;1262;101426;-85
2024/03/10 12:48:41;;;;;;;30.10;18.50;;;;;;;11.99;61.93;100207.21;105894;1261;99161;-86
2024/03/10 12:51:27;;;;;;;27.70;17.60;;;;;;;11.99;61.65;100204.48;105986;1259;98353;-82
2024/03/10 12:54:13;;;;;;;18.30;13.20;;;;;;;12.00;61.48;100200.60;105617;1263;97899;-84
2024/03/10 12:57:00;;;;;;;25.50;15.20;;;;;;;12.00;61.35;100194.69;105934;1259;97854;-86